Tannersville, Virginia
Current Conditions -  °F | °C
As of 10:35 AM on Sunday 21 Dec 2014 (Local Time) from KJFZ Reporting Station
Clear Clear  
Wind Chill: 35°   Ceiling: Unl
Heat Index: 35°   Visibility: 10mi
Dew Point: 28°   Wind: 3mph
Humidity: 77%   Direction: 10°N
Pressure: 30.22"   Gusts: NA
Location:  36.98°N, 81.63°W
Report Text: KJFZ 211535Z AUTO 01003KT 10SM CLR 02/M02 A3022 RMK AO2 T00171020
Loading
Personal Weather Stations






























Interactive Weather Map New forecast layout! Learn more

10-Day Weather Forecast

Advertisements
Track Severe Weather on mobile